MA19 weather

CLOSED Berlin Lndg Area
Berlin, Massachusetts, United States

Public forecast

Using degrees Fahrenheit for public forecast. Weather courtesy of forecast.io.

METAR (pilot weather report)

Closest report is Worcester Regional Airport, 12.0 nm (22.2 km) WSW. Retrieved 2019/09/21 07:54 UTC (22 minutes ago):

KORH 210754Z AUTO 31007KT 10SM CLR 17/09 A3017 RMK AO2 SLP213 T01670094 TSNO

TAF (pilot weather forecast)

Closest forecast is Worcester Regional Airport, 12.0 nm (22.2 km) WSW. Retrieved 2019/09/21 06:27 UTC (2 hours ago):

TAF KORH 210524Z 2106/2206 29011KT P6SM SKC FM211000 32006KT P6SM FEW120 FM211500 28003KT P6SM SKC FM211700 25004KT P6SM SKC